sensor_id;sensor_type;location;lat;lon;timestamp;pressure;altitude;pressure_sealevel;temperature;humidity
70229;BME280;57617;51.988;5.854;2023-04-07T00:01:35;100933.63;;;11.98;72.42
70229;BME280;57617;51.988;5.854;2023-04-07T00:04:00;100924.59;;;11.98;72.68
70229;BME280;57617;51.988;5.854;2023-04-07T00:06:26;100928.66;;;11.95;72.95
70229;BME280;57617;51.988;5.854;2023-04-07T00:08:51;100937.41;;;11.97;72.88
70229;BME280;57617;51.988;5.854;2023-04-07T00:11:17;100938.97;;;11.93;72.84
70229;BME280;57617;51.988;5.854;2023-04-07T00:13:42;100933.78;;;11.92;73.00
70229;BME280;57617;51.988;5.854;2023-04-07T00:16:07;100942.22;;;11.90;73.06
70229;BME280;57617;51.988;5.854;2023-04-07T00:18:33;100939.47;;;11.90;73.02
70229;BME280;57617;51.988;5.854;2023-04-07T00:20:58;100944.09;;;11.90;73.03
70229;BME280;57617;51.988;5.854;2023-04-07T00:23:23;100944.31;;;11.88;73.07
70229;BME280;57617;51.988;5.854;2023-04-07T00:25:49;100942.22;;;11.90;73.05
70229;BME280;57617;51.988;5.854;2023-04-07T00:28:14;100945.41;;;11.87;73.43
70229;BME280;57617;51.988;5.854;2023-04-07T00:30:40;100943.44;;;11.83;73.01
70229;BME280;57617;51.988;5.854;2023-04-07T00:33:05;100952.25;;;11.90;73.15
70229;BME280;57617;51.988;5.854;2023-04-07T00:35:30;100954.13;;;11.89;73.25
70229;BME280;57617;51.988;5.854;2023-04-07T00:37:56;100955.81;;;11.90;73.35
70229;BME280;57617;51.988;5.854;2023-04-07T00:40:21;100955.53;;;11.92;73.27
70229;BME280;57617;51.988;5.854;2023-04-07T00:42:46;100951.78;;;11.93;73.17
70229;BME280;57617;51.988;5.854;2023-04-07T00:45:12;100950.94;;;11.92;72.98
70229;BME280;57617;51.988;5.854;2023-04-07T00:47:37;100946.81;;;11.90;73.24
70229;BME280;57617;51.988;5.854;2023-04-07T00:50:03;100915.59;;;11.64;73.03
70229;BME280;57617;51.988;5.854;2023-04-07T00:52:30;100957.59;;;11.85;73.34
70229;BME280;57617;51.988;5.854;2023-04-07T00:54:56;100953.00;;;11.85;73.25
70229;BME280;57617;51.988;5.854;2023-04-07T00:57:22;100951.94;;;11.86;73.45
70229;BME280;57617;51.988;5.854;2023-04-07T00:59:49;100946.97;;;11.83;73.24
70229;BME280;57617;51.988;5.854;2023-04-07T01:02:33;100950.53;;;11.84;73.47
70229;BME280;57617;51.988;5.854;2023-04-07T01:05:23;100944.00;;;11.85;73.37
70229;BME280;57617;51.988;5.854;2023-04-07T01:07:56;100941.03;;;11.86;73.34
70229;BME280;57617;51.988;5.854;2023-04-07T01:10:45;100942.13;;;11.85;73.52
70229;BME280;57617;51.988;5.854;2023-04-07T01:13:30;100946.38;;;11.81;74.03
70229;BME280;57617;51.988;5.854;2023-04-07T01:16:01;100949.13;;;11.81;73.36
70229;BME280;57617;51.988;5.854;2023-04-07T01:18:31;100949.34;;;11.80;73.42
70229;BME280;57617;51.988;5.854;2023-04-07T01:21:02;100948.50;;;11.79;73.33
70229;BME280;57617;51.988;5.854;2023-04-07T01:23:38;100946.63;;;11.80;73.31
70229;BME280;57617;51.988;5.854;2023-04-07T01:26:32;100947.47;;;11.80;73.44
70229;BME280;57617;51.988;5.854;2023-04-07T01:29:27;100947.94;;;11.77;73.70
70229;BME280;57617;51.988;5.854;2023-04-07T01:31:57;100942.97;;;11.74;73.50
70229;BME280;57617;51.988;5.854;2023-04-07T01:34:24;100939.13;;;11.70;73.43
70229;BME280;57617;51.988;5.854;2023-04-07T01:36:52;100934.25;;;11.72;73.34
70229;BME280;57617;51.988;5.854;2023-04-07T01:39:18;100941.84;;;11.70;73.03
70229;BME280;57617;51.988;5.854;2023-04-07T01:41:45;100939.38;;;11.69;72.98
70229;BME280;57617;51.988;5.854;2023-04-07T01:44:11;100946.44;;;11.70;73.46
70229;BME280;57617;51.988;5.854;2023-04-07T01:46:37;100946.44;;;11.70;73.39
70229;BME280;57617;51.988;5.854;2023-04-07T01:49:03;100950.00;;;11.70;73.33
70229;BME280;57617;51.988;5.854;2023-04-07T01:51:29;100947.28;;;11.70;73.22
70229;BME280;57617;51.988;5.854;2023-04-07T01:53:58;100953.19;;;11.67;73.19
70229;BME280;57617;51.988;5.854;2023-04-07T01:56:23;100955.09;;;11.67;73.06
70229;BME280;57617;51.988;5.854;2023-04-07T01:58:49;100951.56;;;11.66;73.40
70229;BME280;57617;51.988;5.854;2023-04-07T02:01:14;100958.06;;;11.65;73.25
70229;BME280;57617;51.988;5.854;2023-04-07T02:06:34;100945.50;;;11.64;73.21
70229;BME280;57617;51.988;5.854;2023-04-07T02:09:06;100937.50;;;11.58;73.02
70229;BME280;57617;51.988;5.854;2023-04-07T02:11:33;100958.06;;;11.65;73.21
70229;BME280;57617;51.988;5.854;2023-04-07T02:14:01;100964.56;;;11.64;72.82
70229;BME280;57617;51.988;5.854;2023-04-07T02:16:30;100959.13;;;11.64;73.38
70229;BME280;57617;51.988;5.854;2023-04-07T02:18:56;100968.97;;;11.65;73.31
70229;BME280;57617;51.988;5.854;2023-04-07T02:21:22;100961.28;;;11.62;73.31
70229;BME280;57617;51.988;5.854;2023-04-07T02:23:48;100963.75;;;11.64;73.15
70229;BME280;57617;51.988;5.854;2023-04-07T02:26:13;100963.50;;;11.65;73.02
70229;BME280;57617;51.988;5.854;2023-04-07T02:28:39;100957.97;;;11.60;73.13
70229;BME280;57617;51.988;5.854;2023-04-07T02:31:04;100960.44;;;11.62;72.83
70229;BME280;57617;51.988;5.854;2023-04-07T02:33:29;100961.59;;;11.66;72.83
70229;BME280;57617;51.988;5.854;2023-04-07T02:35:55;100952.53;;;11.60;73.28
70229;BME280;57617;51.988;5.854;2023-04-07T02:38:20;100962.09;;;11.63;72.77
70229;BME280;57617;51.988;5.854;2023-04-07T02:40:45;100965.88;;;11.62;73.10
70229;BME280;57617;51.988;5.854;2023-04-07T02:43:10;100962.59;;;11.60;72.98
70229;BME280;57617;51.988;5.854;2023-04-07T02:45:36;100967.78;;;11.61;72.78
70229;BME280;57617;51.988;5.854;2023-04-07T02:48:01;100964.47;;;11.59;73.02
70229;BME280;57617;51.988;5.854;2023-04-07T02:50:26;100953.81;;;11.58;73.24
70229;BME280;57617;51.988;5.854;2023-04-07T02:52:53;100957.59;;;11.57;73.22
70229;BME280;57617;51.988;5.854;2023-04-07T02:55:18;100972.03;;;11.57;73.03
70229;BME280;57617;51.988;5.854;2023-04-07T02:57:43;100971.19;;;11.57;73.30
70229;BME280;57617;51.988;5.854;2023-04-07T03:00:09;100972.63;;;11.59;73.17
70229;BME280;57617;51.988;5.854;2023-04-07T03:02:35;100963.03;;;11.57;73.12
70229;BME280;57617;51.988;5.854;2023-04-07T03:05:00;100979.75;;;11.60;73.16
70229;BME280;57617;51.988;5.854;2023-04-07T03:07:26;100977.69;;;11.56;72.92
70229;BME280;57617;51.988;5.854;2023-04-07T03:09:51;100983.50;;;11.59;73.21
70229;BME280;57617;51.988;5.854;2023-04-07T03:12:16;100978.66;;;11.61;72.92
70229;BME280;57617;51.988;5.854;2023-04-07T03:14:42;100981.63;;;11.60;72.64
70229;BME280;57617;51.988;5.854;2023-04-07T03:17:07;100981.03;;;11.58;73.15
70229;BME280;57617;51.988;5.854;2023-04-07T03:19:32;100987.63;;;11.62;72.97
70229;BME280;57617;51.988;5.854;2023-04-07T03:21:58;100992.28;;;11.61;72.63
70229;BME280;57617;51.988;5.854;2023-04-07T03:24:23;100986.84;;;11.61;73.06
70229;BME280;57617;51.988;5.854;2023-04-07T03:26:48;100985.53;;;11.64;73.00
70229;BME280;57617;51.988;5.854;2023-04-07T03:29:15;100983.59;;;11.64;72.66
70229;BME280;57617;51.988;5.854;2023-04-07T03:31:40;100982.28;;;11.67;73.04
70229;BME280;57617;51.988;5.854;2023-04-07T03:34:06;100986.19;;;11.71;72.69
70229;BME280;57617;51.988;5.854;2023-04-07T03:36:31;100981.59;;;11.71;73.06
70229;BME280;57617;51.988;5.854;2023-04-07T03:38:57;100977.78;;;11.72;72.80
70229;BME280;57617;51.988;5.854;2023-04-07T03:41:22;100979.44;;;11.73;72.79
70229;BME280;57617;51.988;5.854;2023-04-07T03:43:48;100974.22;;;11.72;72.90
70229;BME280;57617;51.988;5.854;2023-04-07T03:46:13;100976.13;;;11.71;73.00
70229;BME280;57617;51.988;5.854;2023-04-07T03:48:38;100984.88;;;11.73;72.80
70229;BME280;57617;51.988;5.854;2023-04-07T03:51:04;100977.56;;;11.74;72.66
70229;BME280;57617;51.988;5.854;2023-04-07T03:53:29;100981.06;;;11.74;72.68
70229;BME280;57617;51.988;5.854;2023-04-07T03:55:54;100980.28;;;11.74;72.84
70229;BME280;57617;51.988;5.854;2023-04-07T03:58:20;100986.78;;;11.73;72.38
70229;BME280;57617;51.988;5.854;2023-04-07T04:00:45;100979.94;;;11.70;72.58
70229;BME280;57617;51.988;5.854;2023-04-07T04:03:10;100982.06;;;11.68;72.80
70229;BME280;57617;51.988;5.854;2023-04-07T04:05:36;100993.28;;;11.72;72.51
70229;BME280;57617;51.988;5.854;2023-04-07T04:08:01;100998.38;;;11.68;72.46
70229;BME280;57617;51.988;5.854;2023-04-07T04:10:26;100995.91;;;11.67;72.92
70229;BME280;57617;51.988;5.854;2023-04-07T04:12:51;101005.47;;;11.69;72.96
70229;BME280;57617;51.988;5.854;2023-04-07T04:15:17;100994.34;;;11.71;72.51
70229;BME280;57617;51.988;5.854;2023-04-07T04:17:42;100987.16;;;11.65;72.80
70229;BME280;57617;51.988;5.854;2023-04-07T04:20:08;100998.97;;;11.70;72.72
70229;BME280;57617;51.988;5.854;2023-04-07T04:22:34;100997.31;;;11.69;72.86
70229;BME280;57617;51.988;5.854;2023-04-07T04:24:59;100989.03;;;11.64;72.54
70229;BME280;57617;51.988;5.854;2023-04-07T04:27:25;101000.53;;;11.66;72.96
70229;BME280;57617;51.988;5.854;2023-04-07T04:29:50;100998.38;;;11.68;72.60
70229;BME280;57617;51.988;5.854;2023-04-07T04:32:15;101001.94;;;11.69;72.64
70229;BME280;57617;51.988;5.854;2023-04-07T04:34:42;101009.03;;;11.70;72.51
70229;BME280;57617;51.988;5.854;2023-04-07T04:37:07;101005.47;;;11.69;72.55
70229;BME280;57617;51.988;5.854;2023-04-07T04:39:33;101006.63;;;11.73;72.26
70229;BME280;57617;51.988;5.854;2023-04-07T04:41:58;101012.09;;;11.73;72.48
70229;BME280;57617;51.988;5.854;2023-04-07T04:44:23;101018.13;;;11.75;72.41
70229;BME280;57617;51.988;5.854;2023-04-07T04:46:49;101020.59;;;11.77;72.70
70229;BME280;57617;51.988;5.854;2023-04-07T04:49:14;101016.44;;;11.74;72.73
70229;BME280;57617;51.988;5.854;2023-04-07T04:51:40;101023.81;;;11.74;72.63
70229;BME280;57617;51.988;5.854;2023-04-07T04:54:06;100995.44;;;11.58;72.47
70229;BME280;57617;51.988;5.854;2023-04-07T04:56:31;101028.75;;;11.77;72.41
70229;BME280;57617;51.988;5.854;2023-04-07T04:58:56;101020.00;;;11.75;72.58
70229;BME280;57617;51.988;5.854;2023-04-07T05:01:22;101025.69;;;11.73;72.58
70229;BME280;57617;51.988;5.854;2023-04-07T05:03:48;101023.47;;;11.70;72.76
70229;BME280;57617;51.988;5.854;2023-04-07T05:06:13;101027.00;;;11.71;72.48
70229;BME280;57617;51.988;5.854;2023-04-07T05:08:39;101031.38;;;11.72;72.73
70229;BME280;57617;51.988;5.854;2023-04-07T05:11:04;101032.22;;;11.72;72.17
70229;BME280;57617;51.988;5.854;2023-04-07T05:13:29;101034.09;;;11.72;72.44
70229;BME280;57617;51.988;5.854;2023-04-07T05:15:55;101036.81;;;11.72;72.40
70229;BME280;57617;51.988;5.854;2023-04-07T05:18:20;101040.84;;;11.69;72.38
70229;BME280;57617;51.988;5.854;2023-04-07T05:20:47;101036.25;;;11.70;72.50
70229;BME280;57617;51.988;5.854;2023-04-07T05:23:13;101042.75;;;11.69;72.49
70229;BME280;57617;51.988;5.854;2023-04-07T05:25:38;101039.28;;;11.73;72.13
70229;BME280;57617;51.988;5.854;2023-04-07T05:28:03;101048.63;;;11.77;72.61
70229;BME280;57617;51.988;5.854;2023-04-07T05:30:28;101052.19;;;11.78;71.95
70229;BME280;57617;51.988;5.854;2023-04-07T05:32:54;101052.19;;;11.78;72.47
70229;BME280;57617;51.988;5.854;2023-04-07T05:35:19;101054.91;;;11.78;72.08
70229;BME280;57617;51.988;5.854;2023-04-07T05:37:44;101048.88;;;11.76;72.33
70229;BME280;57617;51.988;5.854;2023-04-07T05:40:10;101048.88;;;11.76;72.49
70229;BME280;57617;51.988;5.854;2023-04-07T05:42:36;101054.06;;;11.77;72.16
70229;BME280;57617;51.988;5.854;2023-04-07T05:45:01;101058.94;;;11.75;72.35
70229;BME280;57617;51.988;5.854;2023-04-07T05:47:26;101059.53;;;11.77;72.24
70229;BME280;57617;51.988;5.854;2023-04-07T05:49:52;101054.91;;;11.78;72.31
70229;BME280;57617;51.988;5.854;2023-04-07T05:52:17;101040.38;;;11.72;72.35
70229;BME280;57617;51.988;5.854;2023-04-07T05:54:42;101057.13;;;11.81;72.15
70229;BME280;57617;51.988;5.854;2023-04-07T05:57:09;101059.63;;;11.82;72.35
70229;BME280;57617;51.988;5.854;2023-04-07T05:59:34;101058.53;;;11.83;72.33
70229;BME280;57617;51.988;5.854;2023-04-07T06:02:01;101056.91;;;11.82;72.22
70229;BME280;57617;51.988;5.854;2023-04-07T06:04:26;101067.78;;;11.82;72.23
70229;BME280;57617;51.988;5.854;2023-04-07T06:06:52;101073.22;;;11.82;72.40
70229;BME280;57617;51.988;5.854;2023-04-07T06:09:22;101075.72;;;11.84;72.06
70229;BME280;57617;51.988;5.854;2023-04-07T06:11:48;101073.22;;;11.82;72.53
70229;BME280;57617;51.988;5.854;2023-04-07T06:14:13;101068.84;;;11.81;72.28
70229;BME280;57617;51.988;5.854;2023-04-07T06:16:38;101072.38;;;11.82;72.32
70229;BME280;57617;51.988;5.854;2023-04-07T06:19:04;101075.72;;;11.84;72.15
70229;BME280;57617;51.988;5.854;2023-04-07T06:21:31;101074.63;;;11.85;72.63
70229;BME280;57617;51.988;5.854;2023-04-07T06:23:56;101076.78;;;11.83;72.39
70229;BME280;57617;51.988;5.854;2023-04-07T06:26:22;101077.50;;;11.78;72.38
70229;BME280;57617;51.988;5.854;2023-04-07T06:28:47;101080.81;;;11.80;72.37
70229;BME280;57617;51.988;5.854;2023-04-07T06:31:13;101082.94;;;11.78;72.70
70229;BME280;57617;51.988;5.854;2023-04-07T06:33:38;101086.72;;;11.77;72.68
70229;BME280;57617;51.988;5.854;2023-04-07T06:36:03;101086.00;;;11.82;72.79
70229;BME280;57617;51.988;5.854;2023-04-07T06:38:29;101087.91;;;11.81;72.95
70229;BME280;57617;51.988;5.854;2023-04-07T06:40:54;101085.66;;;11.78;73.22
70229;BME280;57617;51.988;5.854;2023-04-07T06:43:19;101091.59;;;11.75;73.00
70229;BME280;57617;51.988;5.854;2023-04-07T06:45:45;101092.75;;;11.79;73.22
70229;BME280;57617;51.988;5.854;2023-04-07T06:48:10;101097.16;;;11.80;73.14
70229;BME280;57617;51.988;5.854;2023-04-07T06:50:36;101101.00;;;11.84;73.05
70229;BME280;57617;51.988;5.854;2023-04-07T06:53:03;101095.69;;;11.89;73.12
70229;BME280;57617;51.988;5.854;2023-04-07T06:55:28;101103.84;;;11.89;72.71
70229;BME280;57617;51.988;5.854;2023-04-07T06:57:54;101106.31;;;11.91;72.91
70229;BME280;57617;51.988;5.854;2023-04-07T07:00:19;101106.56;;;11.89;72.71
70229;BME280;57617;51.988;5.854;2023-04-07T07:02:47;101094.88;;;11.89;72.92
70229;BME280;57617;51.988;5.854;2023-04-07T07:05:12;101103.38;;;11.92;73.64
70229;BME280;57617;51.988;5.854;2023-04-07T07:07:37;101108.91;;;11.97;73.10
70229;BME280;57617;51.988;5.854;2023-04-07T07:10:03;101113.28;;;11.98;72.90
70229;BME280;57617;51.988;5.854;2023-04-07T07:12:28;101108.41;;;12.00;73.06
70229;BME280;57617;51.988;5.854;2023-04-07T07:14:53;101116.09;;;12.03;73.02
70229;BME280;57617;51.988;5.854;2023-04-07T07:17:19;101110.41;;;12.05;72.70
70229;BME280;57617;51.988;5.854;2023-04-07T07:19:44;101106.38;;;12.07;72.95
70229;BME280;57617;51.988;5.854;2023-04-07T07:22:09;101120.56;;;12.09;72.60
70229;BME280;57617;51.988;5.854;2023-04-07T07:24:34;101113.94;;;12.05;72.83
70229;BME280;57617;51.988;5.854;2023-04-07T07:27:00;101122.22;;;12.10;73.08
70229;BME280;57617;51.988;5.854;2023-04-07T07:29:26;101119.50;;;12.10;72.50
70229;BME280;57617;51.988;5.854;2023-04-07T07:31:52;101122.91;;;12.17;72.96
70229;BME280;57617;51.988;5.854;2023-04-07T07:34:17;101131.91;;;12.18;73.05
70229;BME280;57617;51.988;5.854;2023-04-07T07:36:42;101135.00;;;12.21;72.67
70229;BME280;57617;51.988;5.854;2023-04-07T07:39:07;101135.00;;;12.21;72.52
70229;BME280;57617;51.988;5.854;2023-04-07T07:41:33;101147.53;;;12.22;72.93
70229;BME280;57617;51.988;5.854;2023-04-07T07:43:58;101134.81;;;12.28;73.07
70229;BME280;57617;51.988;5.854;2023-04-07T07:46:23;101140.63;;;12.31;72.70
70229;BME280;57617;51.988;5.854;2023-04-07T07:48:50;101134.34;;;12.31;72.47
70229;BME280;57617;51.988;5.854;2023-04-07T07:51:16;101149.38;;;12.33;72.31
70229;BME280;57617;51.988;5.854;2023-04-07T07:53:43;101136.50;;;12.29;72.75
70229;BME280;57617;51.988;5.854;2023-04-07T07:56:08;101148.72;;;12.43;72.58
70229;BME280;57617;51.988;5.854;2023-04-07T07:58:34;101139.75;;;12.42;72.58
70229;BME280;57617;51.988;5.854;2023-04-07T08:01:00;101149.66;;;12.48;72.08
70229;BME280;57617;51.988;5.854;2023-04-07T08:03:25;101154.88;;;12.50;72.27
70229;BME280;57617;51.988;5.854;2023-04-07T08:05:50;101155.44;;;12.52;71.95
70229;BME280;57617;51.988;5.854;2023-04-07T08:08:15;101155.66;;;12.50;72.46
70229;BME280;57617;51.988;5.854;2023-04-07T08:10:41;101157.81;;;12.48;72.19
70229;BME280;57617;51.988;5.854;2023-04-07T08:13:06;101159.81;;;12.53;72.28
70229;BME280;57617;51.988;5.854;2023-04-07T08:15:31;101160.66;;;12.53;71.84
70229;BME280;57617;51.988;5.854;2023-04-07T08:17:57;101167.75;;;12.54;71.95
70229;BME280;57617;51.988;5.854;2023-04-07T08:20:24;101167.75;;;12.54;72.11
70229;BME280;57617;51.988;5.854;2023-04-07T08:22:49;101177.22;;;12.52;72.28
70229;BME280;57617;51.988;5.854;2023-04-07T08:25:14;101175.16;;;12.59;72.03
70229;BME280;57617;51.988;5.854;2023-04-07T08:27:40;101179.31;;;12.61;72.16
70229;BME280;57617;51.988;5.854;2023-04-07T08:30:05;101174.22;;;12.65;72.25
70229;BME280;57617;51.988;5.854;2023-04-07T08:32:35;101172.63;;;12.69;72.36
70229;BME280;57617;51.988;5.854;2023-04-07T08:35:01;101181.25;;;12.77;72.23
70229;BME280;57617;51.988;5.854;2023-04-07T08:37:26;101186.53;;;12.84;72.18
70229;BME280;57617;51.988;5.854;2023-04-07T08:39:51;101193.63;;;12.85;72.36
70229;BME280;57617;51.988;5.854;2023-04-07T08:42:18;101192.06;;;12.89;71.97
70229;BME280;57617;51.988;5.854;2023-04-07T08:44:44;101197.28;;;12.90;72.08
70229;BME280;57617;51.988;5.854;2023-04-07T08:47:12;101198.13;;;12.91;72.02
70229;BME280;57617;51.988;5.854;2023-04-07T08:49:43;101204.53;;;12.85;72.14
70229;BME280;57617;51.988;5.854;2023-04-07T08:52:11;101202.66;;;12.85;71.95
70229;BME280;57617;51.988;5.854;2023-04-07T08:54:39;101207.84;;;12.87;71.64
70229;BME280;57617;51.988;5.854;2023-04-07T08:57:06;101210.50;;;12.82;72.15
70229;BME280;57617;51.988;5.854;2023-04-07T08:59:32;101215.94;;;12.82;72.02
70229;BME280;57617;51.988;5.854;2023-04-07T09:01:59;101210.72;;;12.80;71.97
70229;BME280;57617;51.988;5.854;2023-04-07T09:04:25;101209.91;;;12.80;71.94
70229;BME280;57617;51.988;5.854;2023-04-07T09:06:51;101212.28;;;12.76;71.53
70229;BME280;57617;51.988;5.854;2023-04-07T09:09:17;101212.88;;;12.78;71.88
70229;BME280;57617;51.988;5.854;2023-04-07T09:11:42;101206.94;;;12.81;71.93
70229;BME280;57617;51.988;5.854;2023-04-07T09:14:08;101207.84;;;12.87;72.21
70229;BME280;57617;51.988;5.854;2023-04-07T09:16:33;101210.66;;;12.92;72.17
70229;BME280;57617;51.988;5.854;2023-04-07T09:18:59;101215.88;;;12.93;71.81
70229;BME280;57617;51.988;5.854;2023-04-07T09:21:25;101215.88;;;12.93;71.27
70229;BME280;57617;51.988;5.854;2023-04-07T09:23:51;101224.78;;;12.89;71.65
70229;BME280;57617;51.988;5.854;2023-04-07T09:28:46;101218.84;;;12.92;71.72
70229;BME280;57617;51.988;5.854;2023-04-07T09:31:12;101220.84;;;12.96;71.54
70229;BME280;57617;51.988;5.854;2023-04-07T09:33:37;101222.03;;;13.00;71.43
70229;BME280;57617;51.988;5.854;2023-04-07T09:36:04;101216.66;;;13.05;71.22
70229;BME280;57617;51.988;5.854;2023-04-07T09:38:38;101222.03;;;13.00;70.83
70229;BME280;57617;51.988;5.854;2023-04-07T09:41:14;101221.56;;;13.03;70.72
70229;BME280;57617;51.988;5.854;2023-04-07T09:43:42;101227.47;;;13.00;71.48
70229;BME280;57617;51.988;5.854;2023-04-07T09:46:16;101230.28;;;13.05;71.41
70229;BME280;57617;51.988;5.854;2023-04-07T09:48:44;101237.41;;;13.06;71.05
70229;BME280;57617;51.988;5.854;2023-04-07T09:51:14;101237.41;;;13.06;70.36
70229;BME280;57617;51.988;5.854;2023-04-07T09:53:45;101225.84;;;12.99;70.91
70229;BME280;57617;51.988;5.854;2023-04-07T09:56:12;101236.69;;;13.11;70.71
70229;BME280;57617;51.988;5.854;2023-04-07T09:58:38;101239.03;;;13.07;70.73
70229;BME280;57617;51.988;5.854;2023-04-07T10:01:06;101234.44;;;13.08;71.22
70229;BME280;57617;51.988;5.854;2023-04-07T10:03:33;101232.94;;;13.00;71.09
70229;BME280;57617;51.988;5.854;2023-04-07T10:06:00;101242.19;;;12.99;70.74
70229;BME280;57617;51.988;5.854;2023-04-07T10:08:26;101242.19;;;12.99;70.82
70229;BME280;57617;51.988;5.854;2023-04-07T10:10:52;101236.97;;;12.98;70.45
70229;BME280;57617;51.988;5.854;2023-04-07T10:13:18;101244.59;;;12.96;70.56
70229;BME280;57617;51.988;5.854;2023-04-07T10:15:43;101252.78;;;12.96;70.93
70229;BME280;57617;51.988;5.854;2023-04-07T10:18:09;101237.69;;;12.93;70.98
70229;BME280;57617;51.988;5.854;2023-04-07T10:20:36;101226.44;;;12.90;70.56
70229;BME280;57617;51.988;5.854;2023-04-07T10:23:18;101245.16;;;12.98;70.53
70229;BME280;57617;51.988;5.854;2023-04-07T10:25:45;101249.31;;;13.00;70.87
70229;BME280;57617;51.988;5.854;2023-04-07T10:28:12;101254.28;;;13.03;70.88
70229;BME280;57617;51.988;5.854;2023-04-07T10:30:39;101257.31;;;13.07;70.80
70229;BME280;57617;51.988;5.854;2023-04-07T10:33:05;101253.28;;;13.09;70.48
70229;BME280;57617;51.988;5.854;2023-04-07T10:36:02;101246.09;;;13.20;70.62
70229;BME280;57617;51.988;5.854;2023-04-07T10:38:29;101255.44;;;13.24;70.41
70229;BME280;57617;51.988;5.854;2023-04-07T10:40:55;101249.13;;;13.23;70.15
70229;BME280;57617;51.988;5.854;2023-04-07T10:43:38;101256.00;;;13.26;69.47
70229;BME280;57617;51.988;5.854;2023-04-07T10:46:04;101266.41;;;13.12;69.87
70229;BME280;57617;51.988;5.854;2023-04-07T10:48:30;101265.84;;;13.10;70.07
70229;BME280;57617;51.988;5.854;2023-04-07T10:53:28;101272.94;;;13.11;69.67
70229;BME280;57617;51.988;5.854;2023-04-07T10:55:54;101282.78;;;13.12;69.56
70229;BME280;57617;51.988;5.854;2023-04-07T10:58:29;101274.03;;;13.10;69.90
70229;BME280;57617;51.988;5.854;2023-04-07T11:03:24;101281.63;;;13.08;70.27
70229;BME280;57617;51.988;5.854;2023-04-07T11:05:52;101281.97;;;13.12;70.28
70229;BME280;57617;51.988;5.854;2023-04-07T11:08:33;101284.19;;;13.15;70.40
70229;BME280;57617;51.988;5.854;2023-04-07T11:10:58;101282.88;;;13.17;70.71
70229;BME280;57617;51.988;5.854;2023-04-07T11:13:24;101286.44;;;13.18;70.53
70229;BME280;57617;51.988;5.854;2023-04-07T11:15:50;101280.75;;;13.19;70.29
70229;BME280;57617;51.988;5.854;2023-04-07T11:18:20;101277.31;;;13.12;69.99
70229;BME280;57617;51.988;5.854;2023-04-07T11:20:49;101279.09;;;13.18;70.73
70229;BME280;57617;51.988;5.854;2023-04-07T11:23:16;101285.88;;;13.16;70.27
70229;BME280;57617;51.988;5.854;2023-04-07T11:25:44;101291.13;;;13.22;70.92
70229;BME280;57617;51.988;5.854;2023-04-07T11:28:11;101291.75;;;13.24;70.77
70229;BME280;57617;51.988;5.854;2023-04-07T11:30:38;101270.41;;;13.21;70.56
70229;BME280;57617;51.988;5.854;2023-04-07T11:33:04;101296.13;;;13.25;70.19
70229;BME280;57617;51.988;5.854;2023-04-07T11:35:29;101299.09;;;13.24;70.46
70229;BME280;57617;51.988;5.854;2023-04-07T11:37:59;101297.91;;;13.20;70.74
70229;BME280;57617;51.988;5.854;2023-04-07T11:40:33;101296.78;;;13.16;69.84
70229;BME280;57617;51.988;5.854;2023-04-07T11:42:58;101307.09;;;13.14;70.58
70229;BME280;57617;51.988;5.854;2023-04-07T11:45:24;101305.09;;;13.09;70.71
70229;BME280;57617;51.988;5.854;2023-04-07T11:47:50;101300.03;;;13.01;70.25
70229;BME280;57617;51.988;5.854;2023-04-07T11:50:15;101291.63;;;12.91;70.52
70229;BME280;57617;51.988;5.854;2023-04-07T11:52:46;101295.41;;;13.02;70.75
70229;BME280;57617;51.988;5.854;2023-04-07T11:55:18;101313.06;;;13.11;70.92
70229;BME280;57617;51.988;5.854;2023-04-07T11:57:45;101315.50;;;13.12;70.73
70229;BME280;57617;51.988;5.854;2023-04-07T12:00:11;101313.63;;;13.13;70.77
70229;BME280;57617;51.988;5.854;2023-04-07T12:02:38;101315.59;;;13.17;71.32
70229;BME280;57617;51.988;5.854;2023-04-07T12:05:04;101318.94;;;13.19;70.71
70229;BME280;57617;51.988;5.854;2023-04-07T12:07:30;101330.75;;;13.25;70.94
70229;BME280;57617;51.988;5.854;2023-04-07T12:09:55;101323.53;;;13.19;70.91
70229;BME280;57617;51.988;5.854;2023-04-07T12:12:28;101330.97;;;13.23;70.81
70229;BME280;57617;51.988;5.854;2023-04-07T12:14:54;101333.13;;;13.21;71.07
70229;BME280;57617;51.988;5.854;2023-04-07T12:17:24;101338.75;;;13.15;70.82
70229;BME280;57617;51.988;5.854;2023-04-07T12:19:50;101338.84;;;13.20;71.08
70229;BME280;57617;51.988;5.854;2023-04-07T12:22:15;101333.13;;;13.21;70.95
70229;BME280;57617;51.988;5.854;2023-04-07T12:24:41;101316.00;;;13.09;70.93
70229;BME280;57617;51.988;5.854;2023-04-07T12:27:06;101343.06;;;13.27;70.90
70229;BME280;57617;51.988;5.854;2023-04-07T12:29:33;101348.28;;;13.29;70.82
70229;BME280;57617;51.988;5.854;2023-04-07T12:31:59;101345.56;;;13.29;70.80
70229;BME280;57617;51.988;5.854;2023-04-07T12:34:25;101343.91;;;13.28;70.89
70229;BME280;57617;51.988;5.854;2023-04-07T12:36:51;101351.00;;;13.29;70.81
70229;BME280;57617;51.988;5.854;2023-04-07T12:39:16;101350.16;;;13.28;71.07
70229;BME280;57617;51.988;5.854;2023-04-07T12:41:41;101352.66;;;13.30;70.79
70229;BME280;57617;51.988;5.854;2023-04-07T12:44:08;101349.44;;;13.33;70.44
70229;BME280;57617;51.988;5.854;2023-04-07T12:46:34;101360.69;;;13.36;71.01
70229;BME280;57617;51.988;5.854;2023-04-07T12:48:59;101363.19;;;13.38;70.41
70229;BME280;57617;51.988;5.854;2023-04-07T12:51:25;101358.53;;;13.38;70.58
70229;BME280;57617;51.988;5.854;2023-04-07T12:53:51;101356.09;;;13.37;71.01
70229;BME280;57617;51.988;5.854;2023-04-07T12:56:18;101357.72;;;13.38;70.72
70229;BME280;57617;51.988;5.854;2023-04-07T12:58:43;101364.59;;;13.40;70.83